Time;durP1;ratioP1;P1;durP2;ratioP2;P2;SDS_P1;SDS_P2;PMS_P1;PMS_P2;Temp;Humidity;BMP_temperature;BMP_pressure;BME280_temperature;BME280_humidity;BME280_pressure;Samples;Min_cycle;Max_cycle;Signal;HPM_P1;HPM_P2
2021/01/04 00:00:09;;;;;;;2.38;1.48;;;8.50;73.70;;;;;;5055498;28;20535;-66
2021/01/04 00:03:09;;;;;;;4.60;1.80;;;8.40;73.80;;;;;;5055615;28;20041;-72
2021/01/04 00:05:59;;;;;;;4.50;1.52;;;8.40;74.30;;;;;;5055820;28;20516;-66
2021/01/04 00:08:36;;;;;;;4.18;1.75;;;8.30;73.80;;;;;;5055647;28;20053;-66
2021/01/04 00:11:19;;;;;;;3.50;1.73;;;8.20;74.40;;;;;;5055586;28;20049;-68
2021/01/04 00:13:54;;;;;;;5.05;1.90;;;8.30;74.80;;;;;;5055436;28;20470;-67
2021/01/04 00:16:44;;;;;;;4.72;1.80;;;8.30;74.80;;;;;;5054859;28;20029;-67
2021/01/04 00:19:20;;;;;;;4.38;1.60;;;8.40;74.80;;;;;;5055588;28;20104;-67
2021/01/04 00:21:55;;;;;;;4.82;1.83;;;8.40;74.50;;;;;;5055588;28;20425;-70
2021/01/04 00:24:39;;;;;;;4.15;2.00;;;8.50;74.90;;;;;;5053988;28;20021;-67
2021/01/04 00:27:20;;;;;;;3.58;1.88;;;8.50;74.90;;;;;;5055195;28;20496;-69
2021/01/04 00:29:45;;;;;;;4.30;1.98;;;8.50;74.60;;;;;;5055134;28;20056;-68
2021/01/04 00:32:24;;;;;;;3.80;1.90;;;8.40;74.70;;;;;;5053804;28;20052;-67
2021/01/04 00:34:54;;;;;;;2.97;1.83;;;8.40;74.60;;;;;;5054932;28;20099;-70
2021/01/04 00:37:31;;;;;;;5.25;2.00;;;8.50;74.70;;;;;;5055103;28;20024;-68
2021/01/04 00:40:20;;;;;;;4.68;2.08;;;8.40;75.10;;;;;;5055141;28;20458;-67
2021/01/04 00:42:49;;;;;;;4.05;1.95;;;8.30;75.20;;;;;;5055188;28;20083;-66
2021/01/04 00:45:39;;;;;;;4.38;1.88;;;8.30;75.20;;;;;;5054782;28;20032;-68
2021/01/04 00:48:23;;;;;;;3.55;1.77;;;8.20;75.40;;;;;;5054786;28;20110;-68
2021/01/04 00:51:07;;;;;;;3.67;1.80;;;8.20;75.40;;;;;;5054883;28;20024;-67
2021/01/04 00:53:42;;;;;;;2.35;1.48;;;8.20;75.40;;;;;;5053332;28;20029;-71
2021/01/04 00:56:27;;;;;;;3.35;1.60;;;8.20;75.50;;;;;;5054643;28;20102;-68
2021/01/04 00:59:02;;;;;;;4.82;1.98;;;8.10;75.40;;;;;;5054400;28;20127;-67
2021/01/04 01:01:39;;;;;;;4.13;1.90;;;8.20;75.60;;;;;;5054574;28;20049;-67
2021/01/04 01:04:25;;;;;;;5.75;2.03;;;8.20;75.60;;;;;;5054540;28;20028;-68
2021/01/04 01:06:57;;;;;;;3.85;1.67;;;8.20;75.50;;;;;;5054177;28;20025;-69
2021/01/04 01:09:24;;;;;;;3.22;1.67;;;8.30;75.20;;;;;;5054696;28;20106;-68
2021/01/04 01:11:52;;;;;;;3.33;1.70;;;8.30;75.20;;;;;;5054299;28;20056;-67
2021/01/04 01:14:25;;;;;;;3.50;1.80;;;8.30;75.40;;;;;;5054297;28;20083;-68
2021/01/04 01:17:21;;;;;;;4.13;2.25;;;8.20;75.10;;;;;;5054095;28;20017;-67
2021/01/04 01:19:50;;;;;;;3.17;1.77;;;8.20;75.40;;;;;;5053915;28;20040;-67
2021/01/04 01:22:28;;;;;;;5.45;1.80;;;8.20;75.40;;;;;;5053758;28;20443;-68
2021/01/04 01:24:57;;;;;;;3.33;1.70;;;8.30;75.40;;;;;;5053944;28;20028;-69
2021/01/04 01:27:38;;;;;;;4.97;1.80;;;8.30;75.10;;;;;;5053077;28;20033;-66
2021/01/04 01:30:33;;;;;;;4.07;1.80;;;8.20;74.90;;;;;;5053922;28;20028;-67
2021/01/04 01:33:06;;;;;;;5.93;1.73;;;8.20;75.50;;;;;;5053941;28;20029;-68
2021/01/04 01:35:46;;;;;;;2.42;1.23;;;8.20;75.40;;;;;;5053879;28;20413;-68
2021/01/04 01:38:49;;;;;;;3.40;1.50;;;8.20;75.40;;;;;;5053682;28;20151;-67
2021/01/04 01:41:37;;;;;;;2.88;1.40;;;8.30;75.10;;;;;;5053570;28;20037;-67
2021/01/04 01:44:27;;;;;;;3.35;1.52;;;8.30;74.70;;;;;;5050696;28;20116;-68
2021/01/04 01:47:06;;;;;;;4.38;1.40;;;8.30;74.90;;;;;;5053931;28;20056;-67
2021/01/04 01:49:55;;;;;;;5.00;1.40;;;8.30;74.50;;;;;;5053645;28;20044;-69
2021/01/04 01:52:50;;;;;;;5.32;1.98;;;8.30;74.80;;;;;;5053522;28;20477;-67
2021/01/04 01:55:28;;;;;;;4.25;1.50;;;8.40;74.90;;;;;;5053718;28;20033;-67
2021/01/04 01:58:25;;;;;;;4.95;1.50;;;8.40;74.70;;;;;;5053457;28;20028;-66
2021/01/04 02:00:57;;;;;;;3.72;1.58;;;8.40;74.50;;;;;;5048692;28;20505;-66
2021/01/04 02:03:42;;;;;;;3.15;1.30;;;8.40;74.50;;;;;;5053519;28;20138;-66
2021/01/04 02:06:40;;;;;;;3.38;1.42;;;8.50;74.50;;;;;;5053668;28;20040;-69
2021/01/04 02:09:13;;;;;;;2.28;1.48;;;8.40;73.80;;;;;;5041160;28;20474;-68
2021/01/04 02:12:09;;;;;;;3.47;1.25;;;8.40;73.80;;;;;;5053036;28;20099;-68
2021/01/04 02:14:52;;;;;;;4.63;1.40;;;8.50;74.40;;;;;;5053462;28;20119;-66
2021/01/04 02:17:40;;;;;;;4.13;1.40;;;8.50;74.20;;;;;;5053261;28;20463;-65
2021/01/04 02:20:39;;;;;;;3.35;1.30;;;8.50;74.00;;;;;;5053023;28;20024;-67
2021/01/04 02:23:28;;;;;;;3.75;1.67;;;8.50;74.10;;;;;;5053282;28;20032;-67
2021/01/04 02:25:58;;;;;;;4.22;1.38;;;8.50;74.30;;;;;;5053101;28;20108;-67
2021/01/04 02:28:27;;;;;;;2.72;1.23;;;8.60;73.80;;;;;;5052907;28;20032;-68
2021/01/04 02:30:53;;;;;;;3.50;1.30;;;8.60;73.70;;;;;;5052927;28;20040;-66
2021/01/04 02:33:20;;;;;;;3.97;1.52;;;8.60;73.70;;;;;;5053149;28;20021;-67
2021/01/04 02:35:48;;;;;;;3.47;1.48;;;8.60;73.60;;;;;;5053031;28;20371;-66
2021/01/04 02:38:20;;;;;;;3.65;1.30;;;8.60;74.00;;;;;;5053225;28;20367;-67
2021/01/04 02:40:46;;;;;;;2.75;1.27;;;8.60;73.50;;;;;;5056825;28;20033;-65
2021/01/04 02:43:12;;;;;;;1.73;0.98;;;8.70;73.70;;;;;;5057066;28;20029;-66
2021/01/04 02:45:37;;;;;;;2.65;1.30;;;8.60;73.30;;;;;;5056925;28;20065;-66
2021/01/04 02:48:36;;;;;;;3.33;1.48;;;8.70;73.40;;;;;;5056962;28;20167;-65
2021/01/04 02:51:22;;;;;;;1.90;1.10;;;8.70;73.60;;;;;;5057314;28;20116;-67
2021/01/04 02:54:01;;;;;;;2.13;1.00;;;8.70;73.30;;;;;;5056973;28;20029;-67
2021/01/04 02:56:43;;;;;;;2.17;1.13;;;8.60;73.60;;;;;;5056904;28;20029;-67
2021/01/04 02:59:30;;;;;;;2.80;1.17;;;8.60;73.30;;;;;;5056752;28;20018;-67
2021/01/04 03:02:13;;;;;;;2.92;1.00;;;8.60;73.30;;;;;;5056625;28;20072;-67
2021/01/04 03:04:39;;;;;;;1.75;0.90;;;8.60;72.90;;;;;;5056824;28;20096;-67
2021/01/04 03:07:10;;;;;;;2.60;1.17;;;8.60;72.40;;;;;;5056634;28;20112;-66
2021/01/04 03:09:41;;;;;;;1.83;1.00;;;8.60;72.30;;;;;;5056455;28;20040;-66
2021/01/04 03:12:12;;;;;;;1.92;0.95;;;8.60;72.20;;;;;;5054996;28;20053;-66
2021/01/04 03:14:49;;;;;;;2.67;1.17;;;8.60;72.30;;;;;;5056964;28;20040;-66
2021/01/04 03:17:15;;;;;;;1.70;1.00;;;8.70;72.30;;;;;;5056565;28;20096;-68
2021/01/04 03:19:45;;;;;;;2.22;1.02;;;8.70;72.30;;;;;;5056479;28;20163;-66
2021/01/04 03:22:12;;;;;;;4.43;1.30;;;8.70;71.80;;;;;;5056297;28;20037;-67
2021/01/04 03:24:38;;;;;;;2.88;1.05;;;8.60;71.90;;;;;;5056180;28;20041;-66
2021/01/04 03:27:11;;;;;;;2.08;1.10;;;8.60;72.20;;;;;;5056215;28;20381;-66
2021/01/04 03:29:37;;;;;;;2.15;1.13;;;8.50;71.90;;;;;;5054750;28;20028;-66
2021/01/04 03:32:03;;;;;;;2.15;1.10;;;8.50;72.20;;;;;;5056287;28;20461;-65
2021/01/04 03:34:29;;;;;;;3.83;1.10;;;8.40;72.60;;;;;;5055884;28;20037;-66
2021/01/04 03:36:54;;;;;;;2.03;1.10;;;8.40;72.50;;;;;;5056056;28;20366;-67
2021/01/04 03:39:20;;;;;;;2.53;1.23;;;8.30;72.50;;;;;;5056122;28;20470;-68
2021/01/04 03:41:47;;;;;;;2.55;1.30;;;8.30;73.00;;;;;;5055772;28;20037;-67
2021/01/04 03:44:13;;;;;;;2.17;1.15;;;8.30;72.90;;;;;;5055112;28;20191;-67
2021/01/04 03:46:45;;;;;;;4.30;1.65;;;8.30;72.80;;;;;;5055765;28;20474;-66
2021/01/04 03:49:11;;;;;;;2.15;1.00;;;8.30;72.80;;;;;;5055638;28;20031;-65
2021/01/04 03:51:37;;;;;;;5.70;1.50;;;8.30;72.90;;;;;;5054829;28;20092;-66
2021/01/04 03:54:03;;;;;;;1.58;1.13;;;8.30;72.90;;;;;;5055984;28;20029;-67
2021/01/04 03:56:28;;;;;;;2.17;1.20;;;8.40;73.10;;;;;;5055696;28;20482;-68
2021/01/04 03:58:54;;;;;;;2.00;1.10;;;8.40;73.10;;;;;;5055734;28;20054;-68
2021/01/04 04:01:20;;;;;;;2.20;1.05;;;8.40;72.80;;;;;;5055505;28;20060;-67
2021/01/04 04:03:45;;;;;;;1.50;1.00;;;8.50;73.00;;;;;;5055601;28;20025;-67
2021/01/04 04:06:13;;;;;;;3.20;1.60;;;8.60;73.20;;;;;;5055467;28;20021;-67
2021/01/04 04:08:42;;;;;;;2.42;1.40;;;8.60;72.90;;;;;;5055672;28;20021;-66
2021/01/04 04:11:09;;;;;;;3.30;1.10;;;8.60;72.80;;;;;;5055258;28;20052;-68
2021/01/04 04:13:34;;;;;;;2.35;1.15;;;8.70;72.90;;;;;;5055692;28;20462;-69
2021/01/04 04:16:01;;;;;;;1.58;1.10;;;8.70;72.80;;;;;;5055429;28;20036;-68
2021/01/04 04:18:27;;;;;;;2.45;1.48;;;8.60;72.80;;;;;;5055478;28;20031;-68
2021/01/04 04:20:53;;;;;;;3.05;1.30;;;8.60;72.80;;;;;;5055252;28;20401;-67
2021/01/04 04:23:19;;;;;;;2.38;1.20;;;8.70;73.20;;;;;;5055414;28;20033;-67
2021/01/04 04:25:44;;;;;;;1.67;0.95;;;8.60;72.90;;;;;;5053854;28;20037;-66
2021/01/04 04:28:10;;;;;;;1.90;0.95;;;8.60;72.80;;;;;;5055129;28;20048;-65
2021/01/04 04:30:36;;;;;;;2.65;1.05;;;8.60;72.90;;;;;;5055078;28;20072;-68
2021/01/04 04:33:02;;;;;;;2.80;1.20;;;8.70;72.90;;;;;;5055163;28;20064;-68
2021/01/04 04:35:28;;;;;;;3.00;1.10;;;8.70;72.60;;;;;;5055465;28;20201;-66
2021/01/04 04:37:55;;;;;;;1.75;1.00;;;8.70;72.60;;;;;;5054971;28;20104;-66
2021/01/04 04:40:32;;;;;;;3.40;1.20;;;8.80;72.60;;;;;;5054754;28;20063;-66
2021/01/04 04:43:13;;;;;;;2.30;1.10;;;8.80;72.50;;;;;;5055041;28;20029;-67
2021/01/04 04:45:41;;;;;;;6.63;2.53;;;8.80;72.40;;;;;;5055226;28;20025;-66
2021/01/04 04:48:34;;;;;;;4.40;1.38;;;8.80;72.40;;;;;;5054687;28;20068;-69
2021/01/04 04:51:06;;;;;;;3.50;1.65;;;8.90;72.60;;;;;;5054297;28;20017;-67
2021/01/04 04:54:10;;;;;;;1.98;1.10;;;8.90;72.30;;;;;;5054084;28;20386;-67
2021/01/04 04:56:39;;;;;;;3.17;1.20;;;8.80;72.50;;;;;;5046376;28;20037;-67
2021/01/04 04:59:29;;;;;;;2.97;1.20;;;8.70;72.90;;;;;;5052857;28;20128;-68
2021/01/04 05:02:12;;;;;;;3.05;1.20;;;8.70;73.00;;;;;;5054624;28;20033;-67
2021/01/04 05:05:06;;;;;;;2.80;1.30;;;8.60;73.30;;;;;;5054315;28;20370;-68
2021/01/04 05:07:34;;;;;;;4.30;1.73;;;8.60;73.50;;;;;;5054580;28;20482;-67
2021/01/04 05:10:10;;;;;;;5.20;1.45;;;8.70;73.50;;;;;;5052935;28;20466;-67
2021/01/04 05:12:55;;;;;;;4.22;1.65;;;8.70;73.40;;;;;;5054098;28;20049;-67
2021/01/04 05:15:39;;;;;;;2.22;1.27;;;8.60;73.10;;;;;;5054380;28;20029;-67
2021/01/04 05:18:27;;;;;;;4.15;1.40;;;8.50;73.50;;;;;;5054058;28;20386;-67
2021/01/04 05:20:58;;;;;;;2.95;1.30;;;8.50;73.90;;;;;;5054106;28;20041;-67
2021/01/04 05:23:49;;;;;;;2.95;1.30;;;8.50;73.50;;;;;;5053937;28;20024;-67
2021/01/04 05:26:29;;;;;;;3.63;1.38;;;8.40;73.60;;;;;;5053980;28;20108;-68
2021/01/04 05:29:16;;;;;;;2.42;1.35;;;8.30;73.30;;;;;;5053808;28;20082;-66
2021/01/04 05:32:15;;;;;;;2.20;1.10;;;8.30;73.60;;;;;;5053902;28;20086;-67
2021/01/04 05:34:52;;;;;;;3.45;1.30;;;8.20;73.60;;;;;;5054172;28;20447;-66
2021/01/04 05:37:26;;;;;;;10.70;5.13;;;8.10;73.20;;;;;;5053965;28;20033;-70
2021/01/04 05:40:32;;;;;;;4.00;1.90;;;8.10;73.60;;;;;;5053714;28;20025;-66
2021/01/04 05:43:19;;;;;;;2.88;1.50;;;8.10;73.50;;;;;;5032042;28;20505;-66
2021/01/04 05:45:45;;;;;;;2.10;1.40;;;8.00;73.80;;;;;;5031721;28;20502;-68
2021/01/04 05:48:23;;;;;;;4.68;1.75;;;8.00;73.40;;;;;;5045296;28;20083;-66
2021/01/04 05:50:48;;;;;;;3.25;1.67;;;8.10;73.60;;;;;;5053693;28;20029;-68
2021/01/04 05:53:14;;;;;;;1.95;1.33;;;8.00;73.00;;;;;;5053483;28;20104;-66
2021/01/04 05:55:39;;;;;;;3.72;1.67;;;8.00;73.00;;;;;;5053603;28;20025;-67
2021/01/04 05:58:18;;;;;;;3.33;1.70;;;8.10;73.00;;;;;;5053359;28;20493;-66
2021/01/04 06:00:44;;;;;;;3.53;1.90;;;8.10;72.80;;;;;;5053185;28;20041;-66
2021/01/04 06:03:13;;;;;;;3.83;2.10;;;8.00;72.90;;;;;;5053385;28;20028;-67
2021/01/04 06:05:40;;;;;;;3.55;2.05;;;8.00;72.90;;;;;;5053505;28;20033;-68
2021/01/04 06:08:18;;;;;;;4.60;1.95;;;8.00;72.60;;;;;;5053529;28;20029;-65
2021/01/04 06:10:44;;;;;;;3.53;1.80;;;8.00;72.70;;;;;;5052832;28;20136;-68
2021/01/04 06:13:17;;;;;;;5.60;2.17;;;8.00;72.80;;;;;;5052880;28;20119;-77
2021/01/04 06:15:42;;;;;;;2.58;1.48;;;8.10;72.50;;;;;;5053616;28;20029;-74
2021/01/04 06:18:27;;;;;;;3.88;2.00;;;8.10;73.10;;;;;;5052216;28;20029;-74
2021/01/04 06:20:53;;;;;;;4.10;2.00;;;8.00;72.90;;;;;;5053412;28;20040;-73
2021/01/04 06:23:29;;;;;;;3.50;2.05;;;8.10;73.00;;;;;;5052051;28;20382;-72
2021/01/04 06:26:02;;;;;;;3.22;2.05;;;8.10;72.70;;;;;;5053605;28;20386;-72
2021/01/04 06:28:28;;;;;;;6.78;2.00;;;8.10;73.20;;;;;;5053155;28;20079;-76
2021/01/04 06:31:05;;;;;;;4.47;2.35;;;8.10;72.90;;;;;;5053170;28;20440;-72
2021/01/04 06:33:31;;;;;;;4.03;2.38;;;8.10;72.60;;;;;;5053335;28;20482;-74
2021/01/04 06:36:07;;;;;;;3.60;2.20;;;8.10;72.90;;;;;;5053189;28;20029;-70
2021/01/04 06:38:36;;;;;;;4.75;2.50;;;8.00;72.60;;;;;;5052904;28;20025;-69
2021/01/04 06:41:29;;;;;;;4.70;2.35;;;8.10;73.20;;;;;;5052928;28;20061;-71
2021/01/04 06:43:55;;;;;;;4.88;2.40;;;8.10;73.10;;;;;;5052781;28;20048;-74
2021/01/04 06:46:26;;;;;;;4.20;2.30;;;8.10;73.10;;;;;;5052862;28;20466;-74
2021/01/04 06:49:12;;;;;;;2.92;1.80;;;8.10;72.60;;;;;;5053149;28;20465;-66
2021/01/04 06:52:01;;;;;;;3.53;1.60;;;8.10;72.30;;;;;;5053081;28;20040;-75
2021/01/04 06:55:04;;;;;;;2.95;1.67;;;8.20;73.00;;;;;;5052729;28;20671;-74
2021/01/04 06:57:51;;;;;;;3.10;1.67;;;8.20;72.60;;;;;;5052783;28;20434;-69
2021/01/04 07:00:37;;;;;;;4.78;2.20;;;8.20;72.30;;;;;;5052375;28;20104;-72
2021/01/04 07:03:41;;;;;;;4.25;2.00;;;8.20;72.60;;;;;;5052707;28;20416;-75
2021/01/04 07:06:16;;;;;;;3.10;1.75;;;8.20;71.80;;;;;;5030676;28;20041;-69
2021/01/04 07:08:44;;;;;;;5.00;2.38;;;8.20;72.00;;;;;;5030743;28;20045;-77
2021/01/04 07:11:41;;;;;;;2.97;1.60;;;8.10;71.90;;;;;;5042039;28;20378;-76
2021/01/04 07:14:32;;;;;;;4.85;1.95;;;8.20;72.50;;;;;;5052705;28;20029;-74
2021/01/04 07:17:51;;;;;;;5.65;2.20;;;8.30;72.00;;;;;;5052663;28;20060;-75
2021/01/04 07:20:22;;;;;;;4.70;1.92;;;8.30;72.30;;;;;;5030542;28;20092;-76
2021/01/04 07:22:57;;;;;;;4.38;1.95;;;8.30;71.60;;;;;;5030809;28;20112;-74
2021/01/04 07:25:53;;;;;;;4.95;1.80;;;8.30;71.60;;;;;;5045963;28;20110;-74
2021/01/04 07:28:39;;;;;;;3.67;1.73;;;8.30;71.80;;;;;;5056411;28;20025;-75
2021/01/04 07:31:14;;;;;;;4.30;1.88;;;8.40;71.80;;;;;;5054843;28;20028;-72
2021/01/04 07:33:55;;;;;;;3.33;1.83;;;8.40;71.70;;;;;;5056273;28;20060;-71
2021/01/04 07:37:03;;;;;;;4.05;2.15;;;8.40;71.40;;;;;;5056206;28;20024;-68
2021/01/04 07:39:38;;;;;;;5.90;2.30;;;8.40;71.90;;;;;;5041035;28;20539;-68
2021/01/04 07:42:34;;;;;;;5.07;2.15;;;8.40;72.00;;;;;;5055845;28;20037;-67
2021/01/04 07:45:23;;;;;;;4.10;2.25;;;8.40;72.00;;;;;;5055800;28;20074;-68
2021/01/04 07:48:30;;;;;;;5.05;2.33;;;8.40;71.90;;;;;;5055926;28;20032;-67
2021/01/04 07:51:14;;;;;;;5.28;2.90;;;8.40;71.60;;;;;;5047552;28;20080;-69
2021/01/04 07:53:58;;;;;;;4.93;2.45;;;8.40;72.00;;;;;;5055811;28;20035;-68
2021/01/04 07:57:01;;;;;;;8.50;3.20;;;8.40;72.10;;;;;;5055778;28;20460;-67
2021/01/04 07:59:36;;;;;;;7.30;2.40;;;8.40;72.00;;;;;;5055202;28;20071;-68
2021/01/04 08:02:19;;;;;;;6.30;2.38;;;8.40;71.80;;;;;;5055360;28;20478;-66
2021/01/04 08:05:20;;;;;;;5.05;1.95;;;8.40;71.80;;;;;;5055421;28;20025;-69
2021/01/04 08:08:10;;;;;;;7.30;2.47;;;8.50;71.40;;;;;;5033012;28;20108;-74
2021/01/04 08:10:42;;;;;;;6.25;2.10;;;8.60;71.60;;;;;;5052057;28;20051;-68
2021/01/04 08:13:35;;;;;;;4.90;2.65;;;8.60;71.20;;;;;;5055312;28;20029;-69
2021/01/04 08:16:25;;;;;;;4.80;2.50;;;8.50;71.30;;;;;;5055350;28;20102;-69
2021/01/04 08:18:55;;;;;;;5.75;2.28;;;8.50;71.20;;;;;;5055834;28;20426;-67
2021/01/04 08:21:23;;;;;;;4.55;2.60;;;8.50;71.30;;;;;;5055029;28;20033;-67
2021/01/04 08:24:04;;;;;;;4.70;2.53;;;8.60;71.60;;;;;;5055058;28;20401;-67
2021/01/04 08:26:51;;;;;;;4.38;2.33;;;8.70;71.50;;;;;;5054788;28;20048;-68
2021/01/04 08:29:37;;;;;;;4.30;2.33;;;8.70;71.40;;;;;;5054763;28;20025;-67
2021/01/04 08:32:13;;;;;;;5.32;2.65;;;8.80;71.30;;;;;;5055054;28;20033;-67
2021/01/04 08:34:43;;;;;;;8.75;3.38;;;8.90;70.90;;;;;;5053393;28;20482;-67
2021/01/04 08:37:09;;;;;;;6.88;3.10;;;8.80;70.90;;;;;;5054349;28;20075;-67
2021/01/04 08:39:51;;;;;;;6.43;3.50;;;8.90;71.30;;;;;;5054710;28;20056;-69
2021/01/04 08:42:22;;;;;;;9.85;4.03;;;9.00;71.50;;;;;;5054648;28;20029;-67
2021/01/04 08:45:11;;;;;;;5.40;2.90;;;9.10;71.40;;;;;;5054576;28;20051;-68
2021/01/04 08:47:57;;;;;;;5.53;2.75;;;9.10;71.10;;;;;;5054734;28;20025;-67
2021/01/04 08:50:23;;;;;;;6.78;2.80;;;9.20;70.90;;;;;;5054443;28;20025;-67
2021/01/04 08:52:56;;;;;;;6.30;2.90;;;9.20;70.90;;;;;;5052890;28;20358;-68
2021/01/04 08:55:29;;;;;;;9.13;3.08;;;9.20;70.90;;;;;;5054090;28;20021;-68
2021/01/04 08:57:55;;;;;;;4.35;2.72;;;9.30;70.90;;;;;;5054422;28;20116;-68
2021/01/04 09:00:27;;;;;;;9.90;2.60;;;9.30;70.80;;;;;;5052883;28;20040;-69
2021/01/04 09:02:54;;;;;;;9.05;2.80;;;9.40;70.70;;;;;;5054344;28;20108;-67
2021/01/04 09:05:38;;;;;;;8.00;3.10;;;9.40;70.70;;;;;;5054071;28;20032;-69
2021/01/04 09:08:06;;;;;;;4.68;2.72;;;9.40;70.70;;;;;;5054406;28;20155;-68
2021/01/04 09:10:40;;;;;;;6.32;2.67;;;9.40;70.80;;;;;;5053832;28;20049;-67
2021/01/04 09:13:18;;;;;;;9.82;3.67;;;9.40;70.70;;;;;;5053854;28;20021;-68
2021/01/04 09:15:43;;;;;;;6.65;3.13;;;9.50;70.60;;;;;;5053764;28;20432;-67
2021/01/04 09:18:33;;;;;;;7.10;2.88;;;9.50;70.60;;;;;;5053843;28;20025;-66
2021/01/04 09:21:20;;;;;;;6.20;2.60;;;9.50;70.60;;;;;;5053514;28;20041;-66
2021/01/04 09:23:45;;;;;;;5.95;2.85;;;9.50;70.60;;;;;;5053662;28;20048;-68
2021/01/04 09:26:28;;;;;;;6.22;2.90;;;9.50;70.50;;;;;;5053655;28;20028;-70
2021/01/04 09:29:20;;;;;;;6.97;3.17;;;9.50;70.60;;;;;;5053223;28;20029;-69
2021/01/04 09:32:10;;;;;;;6.57;3.05;;;9.60;70.60;;;;;;5053803;28;20378;-67
2021/01/04 09:34:36;;;;;;;8.40;2.70;;;9.60;70.40;;;;;;5051040;28;20047;-67
2021/01/04 09:37:12;;;;;;;12.90;2.88;;;9.60;70.30;;;;;;5053482;28;20095;-68
2021/01/04 09:39:40;;;;;;;7.00;2.80;;;9.60;70.20;;;;;;5053950;28;20501;-67
2021/01/04 09:42:10;;;;;;;5.88;2.70;;;9.60;70.20;;;;;;5054054;28;20481;-72
2021/01/04 09:44:35;;;;;;;8.98;3.60;;;9.70;70.10;;;;;;5053252;28;20029;-69
2021/01/04 09:47:22;;;;;;;6.57;3.40;;;9.70;70.20;;;;;;5054410;28;20074;-68
2021/01/04 09:49:54;;;;;;;6.15;3.40;;;9.80;70.10;;;;;;5053057;28;20051;-68
2021/01/04 09:52:37;;;;;;;10.23;3.00;;;9.90;70.10;;;;;;5054232;28;20033;-77
2021/01/04 09:55:08;;;;;;;7.25;3.40;;;9.90;69.50;;;;;;5052315;28;20376;-69
2021/01/04 09:57:45;;;;;;;5.75;3.15;;;9.90;69.80;;;;;;5053421;28;20021;-69
2021/01/04 10:00:36;;;;;;;6.10;3.20;;;10.10;68.60;;;;;;5053291;28;20386;-67
2021/01/04 10:03:06;;;;;;;8.05;4.60;;;10.30;68.30;;;;;;5053306;28;20025;-68
2021/01/04 10:05:38;;;;;;;8.60;4.53;;;10.40;68.30;;;;;;5053143;28;20035;-67
2021/01/04 10:08:07;;;;;;;6.25;3.72;;;10.50;67.70;;;;;;5051872;28;20029;-67
2021/01/04 10:10:33;;;;;;;6.18;3.72;;;10.60;67.40;;;;;;5051537;28;20049;-68
2021/01/04 10:13:11;;;;;;;4.47;3.00;;;10.60;67.40;;;;;;5053318;28;20025;-66
2021/01/04 10:15:37;;;;;;;7.65;3.25;;;10.70;67.20;;;;;;5053213;28;20025;-67
2021/01/04 10:18:46;;;;;;;8.98;3.22;;;10.70;67.20;;;;;;5053236;28;20212;-67
2021/01/04 10:21:19;;;;;;;7.13;3.92;;;10.80;67.50;;;;;;5042214;28;20040;-67
2021/01/04 10:24:07;;;;;;;7.15;3.78;;;10.80;67.60;;;;;;5053160;28;20049;-66
2021/01/04 10:26:38;;;;;;;6.07;3.00;;;10.90;67.60;;;;;;5052883;28;20490;-68
2021/01/04 10:29:06;;;;;;;4.80;2.85;;;10.90;67.30;;;;;;5051293;28;20028;-67
2021/01/04 10:31:33;;;;;;;8.02;3.63;;;11.00;67.00;;;;;;5052715;28;20021;-67
2021/01/04 10:34:19;;;;;;;6.30;3.38;;;11.00;66.80;;;;;;5052781;28;20025;-66
2021/01/04 10:37:01;;;;;;;9.80;3.60;;;11.10;66.90;;;;;;5052757;28;20029;-68
2021/01/04 10:39:35;;;;;;;5.80;3.20;;;11.10;66.80;;;;;;5052429;28;20171;-67
2021/01/04 10:42:11;;;;;;;5.35;3.03;;;11.20;66.70;;;;;;5052759;28;20033;-70
2021/01/04 10:44:37;;;;;;;4.13;2.40;;;11.30;67.00;;;;;;5052855;28;20036;-70
2021/01/04 10:47:29;;;;;;;5.20;2.80;;;11.40;66.70;;;;;;5053044;28;20029;-67
2021/01/04 10:50:05;;;;;;;4.40;2.50;;;11.40;66.60;;;;;;5053003;28;20099;-67
2021/01/04 10:52:31;;;;;;;6.55;2.60;;;11.50;66.50;;;;;;5053848;28;20060;-69
2021/01/04 10:54:56;;;;;;;6.20;3.20;;;11.50;66.30;;;;;;5053093;28;20548;-67
2021/01/04 10:57:41;;;;;;;7.55;2.80;;;11.60;66.40;;;;;;5052876;28;20067;-68
2021/01/04 11:00:16;;;;;;;8.35;2.90;;;11.70;66.40;;;;;;5054489;28;20021;-68
2021/01/04 11:02:44;;;;;;;6.32;2.15;;;11.70;67.00;;;;;;5057254;28;20036;-69
2021/01/04 11:05:11;;;;;;;3.25;1.88;;;11.80;65.90;;;;;;5056620;28;20047;-69
2021/01/04 11:07:37;;;;;;;6.53;2.15;;;11.70;65.60;;;;;;5056703;28;20442;-67
2021/01/04 11:10:22;;;;;;;4.40;2.40;;;11.70;65.70;;;;;;5056537;28;20029;-67
2021/01/04 11:12:54;;;;;;;5.35;2.03;;;11.60;65.80;;;;;;5056636;28;20378;-67
2021/01/04 11:15:29;;;;;;;4.63;2.30;;;11.60;65.40;;;;;;5056381;28;20029;-68
2021/01/04 11:18:14;;;;;;;7.78;2.33;;;11.60;65.80;;;;;;5055419;28;20408;-68
2021/01/04 11:20:41;;;;;;;5.53;1.88;;;11.60;65.70;;;;;;5056228;28;20044;-67
2021/01/04 11:23:12;;;;;;;4.13;1.80;;;11.60;65.10;;;;;;5056116;28;20025;-68
2021/01/04 11:25:41;;;;;;;2.78;1.40;;;11.60;65.20;;;;;;5056279;28;20025;-67
2021/01/04 11:28:07;;;;;;;3.60;1.50;;;11.70;64.80;;;;;;5056412;28;20021;-68
2021/01/04 11:30:33;;;;;;;3.08;1.58;;;11.70;64.70;;;;;;5056149;28;20029;-70
2021/01/04 11:33:01;;;;;;;3.53;1.40;;;11.70;64.50;;;;;;5056539;28;20074;-69
2021/01/04 11:35:28;;;;;;;4.20;1.42;;;11.90;64.60;;;;;;5055987;28;20487;-68
2021/01/04 11:37:55;;;;;;;3.28;1.42;;;12.00;63.90;;;;;;5056040;28;20029;-67
2021/01/04 11:40:20;;;;;;;4.22;1.35;;;12.00;63.70;;;;;;5055845;28;20378;-69
2021/01/04 11:42:47;;;;;;;3.22;1.10;;;12.00;63.80;;;;;;5056170;28;20029;-68
2021/01/04 11:45:16;;;;;;;3.45;1.30;;;12.00;62.70;;;;;;5056089;28;20024;-68
2021/01/04 11:47:43;;;;;;;1.42;0.82;;;12.20;62.60;;;;;;5054529;28;20029;-68
2021/01/04 11:50:10;;;;;;;0.90;0.70;;;12.30;62.20;;;;;;5055588;28;20029;-68
2021/01/04 11:52:36;;;;;;;2.72;1.05;;;12.30;61.60;;;;;;5055341;28;20430;-67
2021/01/04 11:55:04;;;;;;;3.67;2.10;;;12.30;61.40;;;;;;5055549;28;20374;-69
2021/01/04 11:57:30;;;;;;;3.58;1.48;;;12.20;61.80;;;;;;5055566;28;20446;-68
2021/01/04 11:59:56;;;;;;;2.55;1.50;;;12.10;61.60;;;;;;5055481;28;20096;-69
2021/01/04 12:02:21;;;;;;;4.90;1.92;;;12.10;61.60;;;;;;5055626;28;20484;-68
2021/01/04 12:04:47;;;;;;;5.68;1.20;;;12.20;61.60;;;;;;5055503;28;20029;-69
2021/01/04 12:07:14;;;;;;;4.18;1.25;;;12.30;61.20;;;;;;5054086;28;20029;-69
2021/01/04 12:09:39;;;;;;;4.43;1.40;;;12.20;61.50;;;;;;5055151;28;20029;-68
2021/01/04 12:12:07;;;;;;;1.77;1.10;;;12.20;61.10;;;;;;5054247;28;20049;-69
2021/01/04 12:14:33;;;;;;;3.20;1.30;;;12.10;61.70;;;;;;5055048;28;20021;-70
2021/01/04 12:17:05;;;;;;;2.88;1.20;;;12.00;61.40;;;;;;5055088;28;20032;-68
2021/01/04 12:19:31;;;;;;;2.13;1.20;;;12.00;62.30;;;;;;5053816;28;20048;-67
2021/01/04 12:22:05;;;;;;;3.58;1.58;;;11.90;61.10;;;;;;5055102;28;20048;-68
2021/01/04 12:24:34;;;;;;;4.05;1.50;;;12.00;62.30;;;;;;5054938;28;20124;-67
2021/01/04 12:27:07;;;;;;;7.63;1.77;;;12.10;61.50;;;;;;5054842;28;20032;-68
2021/01/04 12:29:33;;;;;;;3.85;1.35;;;12.20;62.00;;;;;;5053584;28;20474;-69
2021/01/04 12:32:00;;;;;;;4.03;1.30;;;12.40;61.10;;;;;;5053687;28;20069;-68
2021/01/04 12:34:26;;;;;;;3.80;1.60;;;12.50;60.50;;;;;;5054576;28;20028;-73
2021/01/04 12:36:51;;;;;;;5.47;1.70;;;12.80;60.10;;;;;;5054827;28;20171;-69
2021/01/04 12:39:17;;;;;;;5.03;1.85;;;13.00;59.70;;;;;;5054879;28;20028;-70
2021/01/04 12:41:43;;;;;;;5.47;1.58;;;13.30;59.70;;;;;;5054982;28;20040;-69
2021/01/04 12:44:11;;;;;;;5.18;1.60;;;13.50;59.20;;;;;;5054681;28;20044;-68
2021/01/04 12:46:44;;;;;;;5.28;1.83;;;13.50;57.60;;;;;;5054733;28;20021;-68
2021/01/04 12:49:11;;;;;;;;;;;13.60;57.50;;;;;;5055237;28;20127;-67
2021/01/04 12:51:37;;;;;;;2.88;1.38;;;13.60;55.80;;;;;;5054586;28;19904;-68
2021/01/04 12:54:03;;;;;;;4.35;1.20;;;13.70;57.60;;;;;;5054855;28;20100;-67
2021/01/04 12:56:29;;;;;;;3.83;1.23;;;13.60;57.60;;;;;;5054772;28;20327;-69
2021/01/04 12:58:55;;;;;;;6.82;1.40;;;13.50;57.80;;;;;;5054468;28;20393;-69
2021/01/04 13:01:21;;;;;;;6.05;1.40;;;13.30;57.80;;;;;;5054059;28;20033;-71
2021/01/04 13:03:46;;;;;;;4.35;1.35;;;13.20;58.10;;;;;;5055166;28;20402;-68
2021/01/04 13:06:23;;;;;;;3.90;1.52;;;13.10;58.50;;;;;;5054707;28;20033;-69
2021/01/04 13:08:50;;;;;;;10.48;1.70;;;13.00;58.80;;;;;;5052937;28;20531;-70
2021/01/04 13:11:16;;;;;;;4.35;1.60;;;12.90;58.90;;;;;;5053963;28;20056;-70
2021/01/04 13:13:42;;;;;;;7.57;1.55;;;12.70;59.10;;;;;;5054175;28;20104;-68
2021/01/04 13:16:08;;;;;;;3.72;1.58;;;12.70;59.40;;;;;;5054336;28;20063;-68
2021/01/04 13:18:34;;;;;;;4.43;1.70;;;12.60;59.50;;;;;;5054166;28;20029;-72
2021/01/04 13:20:59;;;;;;;3.88;1.50;;;12.60;59.30;;;;;;5053839;28;20135;-67
2021/01/04 13:23:25;;;;;;;6.78;1.70;;;12.50;59.70;;;;;;5052432;28;20034;-71
2021/01/04 13:25:51;;;;;;;4.82;1.30;;;12.50;59.80;;;;;;5053821;28;20104;-68
2021/01/04 13:28:16;;;;;;;6.28;1.77;;;12.40;60.10;;;;;;5052258;28;20047;-69
2021/01/04 13:30:43;;;;;;;5.30;1.40;;;12.30;60.20;;;;;;5053621;28;20542;-68
2021/01/04 13:33:08;;;;;;;7.38;1.67;;;12.20;60.60;;;;;;5052167;28;20036;-69
2021/01/04 13:35:34;;;;;;;7.07;1.95;;;12.10;60.90;;;;;;5053478;28;20016;-68
2021/01/04 13:38:00;;;;;;;4.18;1.70;;;12.10;61.00;;;;;;5052187;28;20385;-69